sensor_id;sensor_type;location;lat;lon;timestamp;P1;durP1;ratioP1;P2;durP2;ratioP2
41556;SDS011;27720;51.992;5.890;2024-03-02T00:01:23;3.22;;;0.82;;
41556;SDS011;27720;51.992;5.890;2024-03-02T00:03:49;1.95;;;0.90;;
41556;SDS011;27720;51.992;5.890;2024-03-02T00:06:14;1.30;;;0.57;;
41556;SDS011;27720;51.992;5.890;2024-03-02T00:08:44;1.10;;;0.60;;
41556;SDS011;27720;51.992;5.890;2024-03-02T00:11:09;2.95;;;0.80;;
41556;SDS011;27720;51.992;5.890;2024-03-02T00:13:37;1.73;;;0.80;;
41556;SDS011;27720;51.992;5.890;2024-03-02T00:16:02;0.73;;;0.52;;
41556;SDS011;27720;51.992;5.890;2024-03-02T00:18:31;1.17;;;0.47;;
41556;SDS011;27720;51.992;5.890;2024-03-02T00:21:00;1.52;;;0.63;;
41556;SDS011;27720;51.992;5.890;2024-03-02T00:23:29;0.73;;;0.47;;
41556;SDS011;27720;51.992;5.890;2024-03-02T00:25:56;1.15;;;0.68;;
41556;SDS011;27720;51.992;5.890;2024-03-02T00:28:32;1.95;;;0.85;;
41556;SDS011;27720;51.992;5.890;2024-03-02T00:31:02;1.63;;;0.90;;
41556;SDS011;27720;51.992;5.890;2024-03-02T00:33:42;1.10;;;0.60;;
41556;SDS011;27720;51.992;5.890;2024-03-02T00:36:08;1.45;;;0.80;;
41556;SDS011;27720;51.992;5.890;2024-03-02T00:38:45;2.75;;;0.88;;
41556;SDS011;27720;51.992;5.890;2024-03-02T00:41:16;1.27;;;0.73;;
41556;SDS011;27720;51.992;5.890;2024-03-02T00:46:33;4.07;;;0.70;;
41556;SDS011;27720;51.992;5.890;2024-03-02T00:51:49;1.05;;;0.63;;
41556;SDS011;27720;51.992;5.890;2024-03-02T00:54:20;1.15;;;0.63;;
41556;SDS011;27720;51.992;5.890;2024-03-02T00:56:51;1.10;;;0.55;;
41556;SDS011;27720;51.992;5.890;2024-03-02T00:59:17;1.30;;;0.50;;
41556;SDS011;27720;51.992;5.890;2024-03-02T01:01:43;1.65;;;0.50;;
41556;SDS011;27720;51.992;5.890;2024-03-02T01:04:09;1.83;;;0.60;;
41556;SDS011;27720;51.992;5.890;2024-03-02T01:06:35;2.38;;;0.63;;
41556;SDS011;27720;51.992;5.890;2024-03-02T01:09:01;1.73;;;0.60;;
41556;SDS011;27720;51.992;5.890;2024-03-02T01:11:27;0.70;;;0.50;;
41556;SDS011;27720;51.992;5.890;2024-03-02T01:13:55;1.48;;;0.70;;
41556;SDS011;27720;51.992;5.890;2024-03-02T01:16:20;2.28;;;0.63;;
41556;SDS011;27720;51.992;5.890;2024-03-02T01:18:46;2.88;;;0.57;;
41556;SDS011;27720;51.992;5.890;2024-03-02T01:21:12;1.75;;;0.50;;
41556;SDS011;27720;51.992;5.890;2024-03-02T01:23:38;1.33;;;0.60;;
41556;SDS011;27720;51.992;5.890;2024-03-02T01:26:03;1.50;;;0.70;;
41556;SDS011;27720;51.992;5.890;2024-03-02T01:28:29;2.15;;;0.55;;
41556;SDS011;27720;51.992;5.890;2024-03-02T01:30:55;1.90;;;0.70;;
41556;SDS011;27720;51.992;5.890;2024-03-02T01:33:21;1.63;;;0.60;;
41556;SDS011;27720;51.992;5.890;2024-03-02T01:35:46;0.43;;;0.30;;
41556;SDS011;27720;51.992;5.890;2024-03-02T01:38:12;0.63;;;0.35;;
41556;SDS011;27720;51.992;5.890;2024-03-02T01:40:38;2.88;;;0.40;;
41556;SDS011;27720;51.992;5.890;2024-03-02T01:43:05;0.82;;;0.52;;
41556;SDS011;27720;51.992;5.890;2024-03-02T01:45:31;0.40;;;0.40;;
41556;SDS011;27720;51.992;5.890;2024-03-02T01:47:57;0.65;;;0.30;;
41556;SDS011;27720;51.992;5.890;2024-03-02T01:50:33;0.32;;;0.30;;
41556;SDS011;27720;51.992;5.890;2024-03-02T01:52:59;0.73;;;0.30;;
41556;SDS011;27720;51.992;5.890;2024-03-02T01:55:28;0.52;;;0.30;;
41556;SDS011;27720;51.992;5.890;2024-03-02T01:57:55;0.82;;;0.35;;
41556;SDS011;27720;51.992;5.890;2024-03-02T02:00:21;0.30;;;0.30;;
41556;SDS011;27720;51.992;5.890;2024-03-02T02:02:47;0.38;;;0.20;;
41556;SDS011;27720;51.992;5.890;2024-03-02T02:05:14;0.30;;;0.30;;
41556;SDS011;27720;51.992;5.890;2024-03-02T02:07:40;0.30;;;0.28;;
41556;SDS011;27720;51.992;5.890;2024-03-02T02:10:07;1.70;;;0.32;;
41556;SDS011;27720;51.992;5.890;2024-03-02T02:12:33;0.30;;;0.20;;
41556;SDS011;27720;51.992;5.890;2024-03-02T02:14:58;0.25;;;0.20;;
41556;SDS011;27720;51.992;5.890;2024-03-02T02:17:24;0.20;;;0.20;;
41556;SDS011;27720;51.992;5.890;2024-03-02T02:19:50;0.55;;;0.30;;
41556;SDS011;27720;51.992;5.890;2024-03-02T02:22:15;0.32;;;0.30;;
41556;SDS011;27720;51.992;5.890;2024-03-02T02:24:41;0.28;;;0.15;;
41556;SDS011;27720;51.992;5.890;2024-03-02T02:27:07;0.38;;;0.30;;
41556;SDS011;27720;51.992;5.890;2024-03-02T02:29:33;0.47;;;0.20;;
41556;SDS011;27720;51.992;5.890;2024-03-02T02:32:00;0.20;;;0.20;;
41556;SDS011;27720;51.992;5.890;2024-03-02T02:34:25;0.85;;;0.20;;
41556;SDS011;27720;51.992;5.890;2024-03-02T02:36:51;1.88;;;0.17;;
41556;SDS011;27720;51.992;5.890;2024-03-02T02:39:18;0.10;;;0.10;;
41556;SDS011;27720;51.992;5.890;2024-03-02T02:41:47;0.15;;;0.15;;
41556;SDS011;27720;51.992;5.890;2024-03-02T02:44:13;0.65;;;0.20;;
41556;SDS011;27720;51.992;5.890;2024-03-02T02:46:40;0.28;;;0.20;;
41556;SDS011;27720;51.992;5.890;2024-03-02T02:49:06;0.38;;;0.20;;
41556;SDS011;27720;51.992;5.890;2024-03-02T02:51:32;0.20;;;0.20;;
41556;SDS011;27720;51.992;5.890;2024-03-02T02:53:58;0.20;;;0.20;;
41556;SDS011;27720;51.992;5.890;2024-03-02T02:56:23;1.23;;;0.30;;
41556;SDS011;27720;51.992;5.890;2024-03-02T02:58:49;0.73;;;0.20;;
41556;SDS011;27720;51.992;5.890;2024-03-02T03:01:18;1.55;;;0.20;;
41556;SDS011;27720;51.992;5.890;2024-03-02T03:03:44;0.20;;;0.20;;
41556;SDS011;27720;51.992;5.890;2024-03-02T03:06:10;0.20;;;0.20;;
41556;SDS011;27720;51.992;5.890;2024-03-02T03:08:36;0.20;;;0.20;;
41556;SDS011;27720;51.992;5.890;2024-03-02T03:11:02;0.47;;;0.20;;
41556;SDS011;27720;51.992;5.890;2024-03-02T03:13:28;0.10;;;0.10;;
41556;SDS011;27720;51.992;5.890;2024-03-02T03:15:54;1.17;;;0.22;;
41556;SDS011;27720;51.992;5.890;2024-03-02T03:18:20;0.52;;;0.20;;
41556;SDS011;27720;51.992;5.890;2024-03-02T03:20:46;0.10;;;0.10;;
41556;SDS011;27720;51.992;5.890;2024-03-02T03:23:11;0.90;;;0.30;;
41556;SDS011;27720;51.992;5.890;2024-03-02T03:25:40;0.10;;;0.10;;
41556;SDS011;27720;51.992;5.890;2024-03-02T03:28:09;0.32;;;0.28;;
41556;SDS011;27720;51.992;5.890;2024-03-02T03:30:37;0.22;;;0.20;;
41556;SDS011;27720;51.992;5.890;2024-03-02T03:33:03;0.20;;;0.20;;
41556;SDS011;27720;51.992;5.890;2024-03-02T03:35:31;0.10;;;0.10;;
41556;SDS011;27720;51.992;5.890;2024-03-02T03:37:57;0.30;;;0.20;;
41556;SDS011;27720;51.992;5.890;2024-03-02T03:40:22;0.80;;;0.30;;
41556;SDS011;27720;51.992;5.890;2024-03-02T03:42:48;0.20;;;0.20;;
41556;SDS011;27720;51.992;5.890;2024-03-02T03:45:15;0.55;;;0.20;;
41556;SDS011;27720;51.992;5.890;2024-03-02T03:47:41;0.20;;;0.20;;
41556;SDS011;27720;51.992;5.890;2024-03-02T03:50:07;0.47;;;0.20;;
41556;SDS011;27720;51.992;5.890;2024-03-02T03:52:33;0.20;;;0.20;;
41556;SDS011;27720;51.992;5.890;2024-03-02T03:54:59;0.52;;;0.20;;
41556;SDS011;27720;51.992;5.890;2024-03-02T03:57:25;0.10;;;0.10;;
41556;SDS011;27720;51.992;5.890;2024-03-02T03:59:52;0.20;;;0.20;;
41556;SDS011;27720;51.992;5.890;2024-03-02T04:02:18;0.32;;;0.20;;
41556;SDS011;27720;51.992;5.890;2024-03-02T04:04:43;0.20;;;0.20;;
41556;SDS011;27720;51.992;5.890;2024-03-02T04:07:09;0.10;;;0.10;;
41556;SDS011;27720;51.992;5.890;2024-03-02T04:09:35;2.20;;;0.25;;
41556;SDS011;27720;51.992;5.890;2024-03-02T04:12:01;0.20;;;0.20;;
41556;SDS011;27720;51.992;5.890;2024-03-02T04:14:26;0.40;;;0.20;;
41556;SDS011;27720;51.992;5.890;2024-03-02T04:16:52;0.20;;;0.20;;
41556;SDS011;27720;51.992;5.890;2024-03-02T04:19:18;0.20;;;0.20;;
41556;SDS011;27720;51.992;5.890;2024-03-02T04:21:43;0.38;;;0.20;;
41556;SDS011;27720;51.992;5.890;2024-03-02T04:24:09;0.30;;;0.30;;
41556;SDS011;27720;51.992;5.890;2024-03-02T04:26:35;0.35;;;0.30;;
41556;SDS011;27720;51.992;5.890;2024-03-02T04:29:00;0.20;;;0.20;;
41556;SDS011;27720;51.992;5.890;2024-03-02T04:31:27;0.43;;;0.30;;
41556;SDS011;27720;51.992;5.890;2024-03-02T04:33:52;0.30;;;0.30;;
41556;SDS011;27720;51.992;5.890;2024-03-02T04:36:19;0.32;;;0.30;;
41556;SDS011;27720;51.992;5.890;2024-03-02T04:38:46;1.95;;;0.38;;
41556;SDS011;27720;51.992;5.890;2024-03-02T04:41:11;1.98;;;0.22;;
41556;SDS011;27720;51.992;5.890;2024-03-02T04:43:37;0.63;;;0.20;;
41556;SDS011;27720;51.992;5.890;2024-03-02T04:46:03;0.35;;;0.20;;
41556;SDS011;27720;51.992;5.890;2024-03-02T04:48:30;1.70;;;0.35;;
41556;SDS011;27720;51.992;5.890;2024-03-02T04:50:56;0.30;;;0.10;;
41556;SDS011;27720;51.992;5.890;2024-03-02T04:53:22;0.25;;;0.20;;
41556;SDS011;27720;51.992;5.890;2024-03-02T04:55:47;0.25;;;0.20;;
41556;SDS011;27720;51.992;5.890;2024-03-02T04:58:19;0.68;;;0.38;;
41556;SDS011;27720;51.992;5.890;2024-03-02T05:00:44;0.10;;;0.10;;
41556;SDS011;27720;51.992;5.890;2024-03-02T05:03:11;0.10;;;0.10;;
41556;SDS011;27720;51.992;5.890;2024-03-02T05:05:38;0.25;;;0.20;;
41556;SDS011;27720;51.992;5.890;2024-03-02T05:08:04;0.20;;;0.15;;
41556;SDS011;27720;51.992;5.890;2024-03-02T05:10:30;0.57;;;0.20;;
41556;SDS011;27720;51.992;5.890;2024-03-02T05:12:55;0.98;;;0.20;;
41556;SDS011;27720;51.992;5.890;2024-03-02T05:15:24;0.20;;;0.20;;
41556;SDS011;27720;51.992;5.890;2024-03-02T05:17:50;0.90;;;0.30;;
41556;SDS011;27720;51.992;5.890;2024-03-02T05:20:16;0.20;;;0.20;;
41556;SDS011;27720;51.992;5.890;2024-03-02T05:22:42;0.30;;;0.30;;
41556;SDS011;27720;51.992;5.890;2024-03-02T05:25:08;0.20;;;0.20;;
41556;SDS011;27720;51.992;5.890;2024-03-02T05:27:35;0.80;;;0.20;;
41556;SDS011;27720;51.992;5.890;2024-03-02T05:30:01;0.30;;;0.30;;
41556;SDS011;27720;51.992;5.890;2024-03-02T05:32:27;0.20;;;0.20;;
41556;SDS011;27720;51.992;5.890;2024-03-02T05:34:53;0.28;;;0.28;;
41556;SDS011;27720;51.992;5.890;2024-03-02T05:37:20;0.50;;;0.30;;
41556;SDS011;27720;51.992;5.890;2024-03-02T05:39:45;3.35;;;0.32;;
41556;SDS011;27720;51.992;5.890;2024-03-02T05:42:11;0.88;;;0.30;;
41556;SDS011;27720;51.992;5.890;2024-03-02T05:44:37;0.10;;;0.10;;
41556;SDS011;27720;51.992;5.890;2024-03-02T05:47:02;1.38;;;0.20;;
41556;SDS011;27720;51.992;5.890;2024-03-02T05:49:29;0.35;;;0.20;;
41556;SDS011;27720;51.992;5.890;2024-03-02T05:51:55;0.50;;;0.20;;
41556;SDS011;27720;51.992;5.890;2024-03-02T05:54:20;0.22;;;0.20;;
41556;SDS011;27720;51.992;5.890;2024-03-02T05:56:46;0.45;;;0.20;;
41556;SDS011;27720;51.992;5.890;2024-03-02T05:59:12;2.25;;;0.30;;
41556;SDS011;27720;51.992;5.890;2024-03-02T06:01:47;1.30;;;0.20;;
41556;SDS011;27720;51.992;5.890;2024-03-02T06:04:15;0.40;;;0.22;;
41556;SDS011;27720;51.992;5.890;2024-03-02T06:06:44;0.30;;;0.25;;
41556;SDS011;27720;51.992;5.890;2024-03-02T06:09:10;0.10;;;0.10;;
41556;SDS011;27720;51.992;5.890;2024-03-02T06:11:39;1.10;;;0.20;;
41556;SDS011;27720;51.992;5.890;2024-03-02T06:14:06;0.35;;;0.30;;
41556;SDS011;27720;51.992;5.890;2024-03-02T06:16:33;0.30;;;0.20;;
41556;SDS011;27720;51.992;5.890;2024-03-02T06:18:59;0.20;;;0.20;;
41556;SDS011;27720;51.992;5.890;2024-03-02T06:21:25;0.60;;;0.20;;
41556;SDS011;27720;51.992;5.890;2024-03-02T06:23:51;0.20;;;0.10;;
41556;SDS011;27720;51.992;5.890;2024-03-02T06:26:17;0.60;;;0.22;;
41556;SDS011;27720;51.992;5.890;2024-03-02T06:28:43;0.32;;;0.20;;
41556;SDS011;27720;51.992;5.890;2024-03-02T06:31:09;0.30;;;0.28;;
41556;SDS011;27720;51.992;5.890;2024-03-02T06:33:35;0.20;;;0.20;;
41556;SDS011;27720;51.992;5.890;2024-03-02T06:36:01;1.23;;;0.30;;
41556;SDS011;27720;51.992;5.890;2024-03-02T06:38:27;0.47;;;0.30;;
41556;SDS011;27720;51.992;5.890;2024-03-02T06:40:53;0.20;;;0.20;;
41556;SDS011;27720;51.992;5.890;2024-03-02T06:43:20;0.93;;;0.20;;
41556;SDS011;27720;51.992;5.890;2024-03-02T06:45:48;0.20;;;0.20;;
41556;SDS011;27720;51.992;5.890;2024-03-02T06:48:17;0.20;;;0.20;;
41556;SDS011;27720;51.992;5.890;2024-03-02T06:50:48;2.35;;;0.20;;
41556;SDS011;27720;51.992;5.890;2024-03-02T06:53:15;0.20;;;0.20;;
41556;SDS011;27720;51.992;5.890;2024-03-02T06:55:44;0.20;;;0.20;;
41556;SDS011;27720;51.992;5.890;2024-03-02T06:58:11;0.38;;;0.20;;
41556;SDS011;27720;51.992;5.890;2024-03-02T07:00:37;0.20;;;0.20;;
41556;SDS011;27720;51.992;5.890;2024-03-02T07:03:03;0.32;;;0.30;;
41556;SDS011;27720;51.992;5.890;2024-03-02T07:05:29;0.22;;;0.20;;
41556;SDS011;27720;51.992;5.890;2024-03-02T07:07:55;0.22;;;0.22;;
41556;SDS011;27720;51.992;5.890;2024-03-02T07:10:21;0.22;;;0.22;;
41556;SDS011;27720;51.992;5.890;2024-03-02T07:12:46;0.28;;;0.13;;
41556;SDS011;27720;51.992;5.890;2024-03-02T07:15:12;0.73;;;0.20;;
41556;SDS011;27720;51.992;5.890;2024-03-02T07:18:08;0.30;;;0.20;;
41556;SDS011;27720;51.992;5.890;2024-03-02T07:20:33;0.30;;;0.25;;
41556;SDS011;27720;51.992;5.890;2024-03-02T07:23:02;1.17;;;0.10;;
41556;SDS011;27720;51.992;5.890;2024-03-02T07:25:27;0.20;;;0.20;;
41556;SDS011;27720;51.992;5.890;2024-03-02T07:27:53;0.50;;;0.28;;
41556;SDS011;27720;51.992;5.890;2024-03-02T07:30:19;0.25;;;0.25;;
41556;SDS011;27720;51.992;5.890;2024-03-02T07:32:44;0.65;;;0.40;;
41556;SDS011;27720;51.992;5.890;2024-03-02T07:35:11;0.30;;;0.20;;
41556;SDS011;27720;51.992;5.890;2024-03-02T07:37:38;0.20;;;0.20;;
41556;SDS011;27720;51.992;5.890;2024-03-02T07:40:04;0.65;;;0.30;;
41556;SDS011;27720;51.992;5.890;2024-03-02T07:42:34;0.30;;;0.20;;
41556;SDS011;27720;51.992;5.890;2024-03-02T07:45:00;0.30;;;0.20;;
41556;SDS011;27720;51.992;5.890;2024-03-02T07:47:25;3.28;;;0.40;;
41556;SDS011;27720;51.992;5.890;2024-03-02T07:49:51;0.93;;;0.40;;
41556;SDS011;27720;51.992;5.890;2024-03-02T07:52:17;0.82;;;0.25;;
41556;SDS011;27720;51.992;5.890;2024-03-02T07:54:42;0.88;;;0.30;;
41556;SDS011;27720;51.992;5.890;2024-03-02T07:57:09;5.15;;;0.47;;
41556;SDS011;27720;51.992;5.890;2024-03-02T07:59:35;0.80;;;0.22;;
41556;SDS011;27720;51.992;5.890;2024-03-02T08:02:01;0.20;;;0.20;;
41556;SDS011;27720;51.992;5.890;2024-03-02T08:04:27;0.73;;;0.25;;
41556;SDS011;27720;51.992;5.890;2024-03-02T08:06:53;1.25;;;0.30;;
41556;SDS011;27720;51.992;5.890;2024-03-02T08:09:19;2.25;;;0.30;;
41556;SDS011;27720;51.992;5.890;2024-03-02T08:11:45;1.20;;;0.25;;
41556;SDS011;27720;51.992;5.890;2024-03-02T08:14:11;2.22;;;0.30;;
41556;SDS011;27720;51.992;5.890;2024-03-02T08:16:36;0.43;;;0.30;;
41556;SDS011;27720;51.992;5.890;2024-03-02T08:19:02;0.60;;;0.30;;
41556;SDS011;27720;51.992;5.890;2024-03-02T08:21:28;0.40;;;0.20;;
41556;SDS011;27720;51.992;5.890;2024-03-02T08:23:57;1.65;;;0.40;;
41556;SDS011;27720;51.992;5.890;2024-03-02T08:26:23;0.30;;;0.20;;
41556;SDS011;27720;51.992;5.890;2024-03-02T08:28:49;1.40;;;0.40;;
41556;SDS011;27720;51.992;5.890;2024-03-02T08:31:15;0.30;;;0.30;;
41556;SDS011;27720;51.992;5.890;2024-03-02T08:33:40;0.45;;;0.20;;
41556;SDS011;27720;51.992;5.890;2024-03-02T08:36:07;2.78;;;0.30;;
41556;SDS011;27720;51.992;5.890;2024-03-02T08:38:34;0.93;;;0.28;;
41556;SDS011;27720;51.992;5.890;2024-03-02T08:41:00;0.85;;;0.40;;
41556;SDS011;27720;51.992;5.890;2024-03-02T08:43:26;1.10;;;0.32;;
41556;SDS011;27720;51.992;5.890;2024-03-02T08:45:52;0.30;;;0.20;;
41556;SDS011;27720;51.992;5.890;2024-03-02T08:48:17;0.75;;;0.20;;
41556;SDS011;27720;51.992;5.890;2024-03-02T08:50:43;1.05;;;0.40;;
41556;SDS011;27720;51.992;5.890;2024-03-02T08:53:09;2.70;;;0.20;;
41556;SDS011;27720;51.992;5.890;2024-03-02T08:55:34;2.50;;;0.30;;
41556;SDS011;27720;51.992;5.890;2024-03-02T08:58:00;0.55;;;0.20;;
41556;SDS011;27720;51.992;5.890;2024-03-02T09:00:26;0.32;;;0.20;;
41556;SDS011;27720;51.992;5.890;2024-03-02T09:02:51;0.90;;;0.20;;
41556;SDS011;27720;51.992;5.890;2024-03-02T09:05:17;1.40;;;0.40;;
41556;SDS011;27720;51.992;5.890;2024-03-02T09:07:43;0.60;;;0.50;;
41556;SDS011;27720;51.992;5.890;2024-03-02T09:10:09;0.35;;;0.20;;
41556;SDS011;27720;51.992;5.890;2024-03-02T09:12:35;5.35;;;0.70;;
41556;SDS011;27720;51.992;5.890;2024-03-02T09:15:01;2.45;;;0.65;;
41556;SDS011;27720;51.992;5.890;2024-03-02T09:17:31;2.90;;;0.75;;
41556;SDS011;27720;51.992;5.890;2024-03-02T09:19:57;3.35;;;0.40;;
41556;SDS011;27720;51.992;5.890;2024-03-02T09:22:22;0.57;;;0.30;;
41556;SDS011;27720;51.992;5.890;2024-03-02T09:24:48;1.73;;;0.40;;
41556;SDS011;27720;51.992;5.890;2024-03-02T09:27:14;0.65;;;0.40;;
41556;SDS011;27720;51.992;5.890;2024-03-02T09:29:39;1.65;;;0.50;;
41556;SDS011;27720;51.992;5.890;2024-03-02T09:32:05;0.30;;;0.20;;
41556;SDS011;27720;51.992;5.890;2024-03-02T09:34:32;1.10;;;0.28;;
41556;SDS011;27720;51.992;5.890;2024-03-02T09:36:58;2.00;;;0.60;;
41556;SDS011;27720;51.992;5.890;2024-03-02T09:39:24;1.38;;;0.30;;
41556;SDS011;27720;51.992;5.890;2024-03-02T09:41:52;1.25;;;0.40;;
41556;SDS011;27720;51.992;5.890;2024-03-02T09:44:19;2.20;;;0.40;;
41556;SDS011;27720;51.992;5.890;2024-03-02T09:46:48;1.27;;;0.30;;
41556;SDS011;27720;51.992;5.890;2024-03-02T09:49:14;0.88;;;0.30;;
41556;SDS011;27720;51.992;5.890;2024-03-02T09:51:40;1.05;;;0.40;;
41556;SDS011;27720;51.992;5.890;2024-03-02T09:54:12;1.00;;;0.30;;
41556;SDS011;27720;51.992;5.890;2024-03-02T09:56:38;0.65;;;0.25;;
41556;SDS011;27720;51.992;5.890;2024-03-02T09:59:04;0.50;;;0.40;;
41556;SDS011;27720;51.992;5.890;2024-03-02T10:01:30;1.20;;;0.50;;
41556;SDS011;27720;51.992;5.890;2024-03-02T10:03:58;0.52;;;0.28;;
41556;SDS011;27720;51.992;5.890;2024-03-02T10:06:25;1.02;;;0.40;;
41556;SDS011;27720;51.992;5.890;2024-03-02T10:08:52;2.22;;;0.30;;
41556;SDS011;27720;51.992;5.890;2024-03-02T10:11:26;2.75;;;0.30;;
41556;SDS011;27720;51.992;5.890;2024-03-02T10:14:05;0.47;;;0.20;;
41556;SDS011;27720;51.992;5.890;2024-03-02T10:16:40;0.85;;;0.30;;
41556;SDS011;27720;51.992;5.890;2024-03-02T10:21:46;0.30;;;0.20;;
41556;SDS011;27720;51.992;5.890;2024-03-02T10:24:12;0.17;;;0.10;;
41556;SDS011;27720;51.992;5.890;2024-03-02T10:26:38;1.00;;;0.30;;
41556;SDS011;27720;51.992;5.890;2024-03-02T10:29:04;3.80;;;0.20;;
41556;SDS011;27720;51.992;5.890;2024-03-02T10:31:30;0.82;;;0.30;;
41556;SDS011;27720;51.992;5.890;2024-03-02T10:33:57;0.40;;;0.20;;
41556;SDS011;27720;51.992;5.890;2024-03-02T10:36:23;1.85;;;0.30;;
41556;SDS011;27720;51.992;5.890;2024-03-02T10:38:50;1.85;;;0.20;;
41556;SDS011;27720;51.992;5.890;2024-03-02T10:41:24;0.40;;;0.20;;
41556;SDS011;27720;51.992;5.890;2024-03-02T10:43:52;0.40;;;0.20;;
41556;SDS011;27720;51.992;5.890;2024-03-02T10:46:34;0.47;;;0.20;;
41556;SDS011;27720;51.992;5.890;2024-03-02T10:49:01;2.30;;;0.20;;
41556;SDS011;27720;51.992;5.890;2024-03-02T10:51:29;1.42;;;0.25;;
41556;SDS011;27720;51.992;5.890;2024-03-02T10:54:01;1.95;;;0.30;;
41556;SDS011;27720;51.992;5.890;2024-03-02T11:01:48;0.88;;;0.22;;
41556;SDS011;27720;51.992;5.890;2024-03-02T11:04:16;0.60;;;0.22;;
41556;SDS011;27720;51.992;5.890;2024-03-02T11:06:50;0.63;;;0.20;;
41556;SDS011;27720;51.992;5.890;2024-03-02T11:09:18;0.98;;;0.40;;
41556;SDS011;27720;51.992;5.890;2024-03-02T11:11:48;0.50;;;0.20;;
41556;SDS011;27720;51.992;5.890;2024-03-02T11:14:21;0.95;;;0.20;;
41556;SDS011;27720;51.992;5.890;2024-03-02T11:16:50;2.25;;;0.13;;
41556;SDS011;27720;51.992;5.890;2024-03-02T11:19:17;1.73;;;0.30;;
41556;SDS011;27720;51.992;5.890;2024-03-02T11:21:44;0.10;;;0.10;;
41556;SDS011;27720;51.992;5.890;2024-03-02T11:26:52;1.17;;;0.55;;
41556;SDS011;27720;51.992;5.890;2024-03-02T11:32:04;0.52;;;0.30;;
41556;SDS011;27720;51.992;5.890;2024-03-02T11:34:32;0.77;;;0.30;;
41556;SDS011;27720;51.992;5.890;2024-03-02T11:37:01;3.20;;;0.20;;
41556;SDS011;27720;51.992;5.890;2024-03-02T11:39:28;0.50;;;0.20;;
41556;SDS011;27720;51.992;5.890;2024-03-02T11:41:57;3.20;;;0.40;;
41556;SDS011;27720;51.992;5.890;2024-03-02T11:44:26;0.60;;;0.30;;
41556;SDS011;27720;51.992;5.890;2024-03-02T11:46:59;1.83;;;0.38;;
41556;SDS011;27720;51.992;5.890;2024-03-02T11:49:38;1.52;;;0.35;;
41556;SDS011;27720;51.992;5.890;2024-03-02T11:52:04;1.90;;;0.30;;
41556;SDS011;27720;51.992;5.890;2024-03-02T11:54:32;0.40;;;0.20;;
41556;SDS011;27720;51.992;5.890;2024-03-02T11:57:01;0.38;;;0.20;;
41556;SDS011;27720;51.992;5.890;2024-03-02T11:59:29;1.45;;;0.20;;
41556;SDS011;27720;51.992;5.890;2024-03-02T12:01:58;1.30;;;0.28;;
41556;SDS011;27720;51.992;5.890;2024-03-02T12:04:25;0.88;;;0.30;;
41556;SDS011;27720;51.992;5.890;2024-03-02T12:07:09;1.85;;;0.30;;
41556;SDS011;27720;51.992;5.890;2024-03-02T12:09:35;0.50;;;0.30;;
41556;SDS011;27720;51.992;5.890;2024-03-02T12:12:01;0.47;;;0.20;;
41556;SDS011;27720;51.992;5.890;2024-03-02T12:16:57;0.65;;;0.20;;
41556;SDS011;27720;51.992;5.890;2024-03-02T12:19:26;0.52;;;0.17;;
41556;SDS011;27720;51.992;5.890;2024-03-02T12:21:54;0.73;;;0.35;;
41556;SDS011;27720;51.992;5.890;2024-03-02T12:24:21;0.50;;;0.10;;
41556;SDS011;27720;51.992;5.890;2024-03-02T12:26:49;0.20;;;0.20;;
41556;SDS011;27720;51.992;5.890;2024-03-02T12:29:18;0.28;;;0.20;;
41556;SDS011;27720;51.992;5.890;2024-03-02T12:31:45;1.00;;;0.20;;
41556;SDS011;27720;51.992;5.890;2024-03-02T12:34:13;0.60;;;0.28;;
41556;SDS011;27720;51.992;5.890;2024-03-02T12:36:40;1.13;;;0.30;;
41556;SDS011;27720;51.992;5.890;2024-03-02T12:39:09;0.95;;;0.20;;
41556;SDS011;27720;51.992;5.890;2024-03-02T12:41:38;0.52;;;0.20;;
41556;SDS011;27720;51.992;5.890;2024-03-02T12:44:04;3.17;;;0.40;;
41556;SDS011;27720;51.992;5.890;2024-03-02T12:46:30;1.83;;;0.20;;
41556;SDS011;27720;51.992;5.890;2024-03-02T12:48:57;0.28;;;0.20;;
41556;SDS011;27720;51.992;5.890;2024-03-02T12:51:24;0.47;;;0.20;;
41556;SDS011;27720;51.992;5.890;2024-03-02T12:53:59;0.82;;;0.20;;
41556;SDS011;27720;51.992;5.890;2024-03-02T12:56:24;2.08;;;0.45;;
41556;SDS011;27720;51.992;5.890;2024-03-02T12:58:54;0.43;;;0.20;;
41556;SDS011;27720;51.992;5.890;2024-03-02T13:01:20;4.50;;;0.28;;
41556;SDS011;27720;51.992;5.890;2024-03-02T13:03:49;1.30;;;0.30;;
41556;SDS011;27720;51.992;5.890;2024-03-02T13:06:16;1.05;;;0.17;;
41556;SDS011;27720;51.992;5.890;2024-03-02T13:08:42;0.82;;;0.40;;
41556;SDS011;27720;51.992;5.890;2024-03-02T13:11:08;0.35;;;0.20;;
41556;SDS011;27720;51.992;5.890;2024-03-02T13:13:34;0.52;;;0.30;;
41556;SDS011;27720;51.992;5.890;2024-03-02T13:16:00;1.20;;;0.22;;
41556;SDS011;27720;51.992;5.890;2024-03-02T13:18:27;0.90;;;0.30;;
41556;SDS011;27720;51.992;5.890;2024-03-02T13:20:54;1.65;;;0.40;;
41556;SDS011;27720;51.992;5.890;2024-03-02T13:23:21;1.35;;;0.30;;
41556;SDS011;27720;51.992;5.890;2024-03-02T13:25:47;0.28;;;0.20;;
41556;SDS011;27720;51.992;5.890;2024-03-02T13:28:12;0.98;;;0.40;;
41556;SDS011;27720;51.992;5.890;2024-03-02T13:30:38;3.42;;;0.40;;
41556;SDS011;27720;51.992;5.890;2024-03-02T13:33:04;1.63;;;0.55;;
41556;SDS011;27720;51.992;5.890;2024-03-02T13:35:30;2.95;;;0.65;;
41556;SDS011;27720;51.992;5.890;2024-03-02T13:37:56;1.17;;;0.40;;
41556;SDS011;27720;51.992;5.890;2024-03-02T13:40:21;1.52;;;0.50;;
41556;SDS011;27720;51.992;5.890;2024-03-02T13:42:49;2.30;;;0.35;;
41556;SDS011;27720;51.992;5.890;2024-03-02T13:45:16;1.00;;;0.30;;
41556;SDS011;27720;51.992;5.890;2024-03-02T13:47:43;1.42;;;0.40;;
41556;SDS011;27720;51.992;5.890;2024-03-02T13:50:09;2.42;;;0.30;;
41556;SDS011;27720;51.992;5.890;2024-03-02T13:52:37;1.13;;;0.50;;
41556;SDS011;27720;51.992;5.890;2024-03-02T13:55:03;1.15;;;0.30;;
41556;SDS011;27720;51.992;5.890;2024-03-02T13:57:29;0.82;;;0.30;;
41556;SDS011;27720;51.992;5.890;2024-03-02T13:59:55;1.50;;;0.40;;
41556;SDS011;27720;51.992;5.890;2024-03-02T14:02:21;1.25;;;0.30;;
41556;SDS011;27720;51.992;5.890;2024-03-02T14:04:48;1.65;;;0.38;;
41556;SDS011;27720;51.992;5.890;2024-03-02T14:07:14;1.23;;;0.28;;
41556;SDS011;27720;51.992;5.890;2024-03-02T14:09:40;1.65;;;0.30;;
41556;SDS011;27720;51.992;5.890;2024-03-02T14:12:06;1.70;;;0.50;;
41556;SDS011;27720;51.992;5.890;2024-03-02T14:14:32;0.95;;;0.30;;
41556;SDS011;27720;51.992;5.890;2024-03-02T14:16:58;1.10;;;0.30;;
41556;SDS011;27720;51.992;5.890;2024-03-02T14:19:31;0.63;;;0.40;;
41556;SDS011;27720;51.992;5.890;2024-03-02T14:21:57;2.22;;;0.30;;
41556;SDS011;27720;51.992;5.890;2024-03-02T14:24:26;0.13;;;0.10;;
41556;SDS011;27720;51.992;5.890;2024-03-02T14:29:19;2.15;;;0.28;;
41556;SDS011;27720;51.992;5.890;2024-03-02T14:31:45;0.90;;;0.30;;
41556;SDS011;27720;51.992;5.890;2024-03-02T14:34:13;0.75;;;0.20;;
41556;SDS011;27720;51.992;5.890;2024-03-02T14:36:39;0.90;;;0.20;;
41556;SDS011;27720;51.992;5.890;2024-03-02T14:39:06;1.60;;;0.40;;
41556;SDS011;27720;51.992;5.890;2024-03-02T14:41:35;3.35;;;0.35;;
41556;SDS011;27720;51.992;5.890;2024-03-02T14:44:01;3.55;;;0.45;;
41556;SDS011;27720;51.992;5.890;2024-03-02T14:46:27;0.90;;;0.40;;
41556;SDS011;27720;51.992;5.890;2024-03-02T14:48:53;2.72;;;0.82;;
41556;SDS011;27720;51.992;5.890;2024-03-02T14:51:18;2.65;;;0.40;;
41556;SDS011;27720;51.992;5.890;2024-03-02T14:53:44;0.70;;;0.30;;
41556;SDS011;27720;51.992;5.890;2024-03-02T14:56:10;0.47;;;0.20;;
41556;SDS011;27720;51.992;5.890;2024-03-02T14:58:38;1.92;;;0.40;;
41556;SDS011;27720;51.992;5.890;2024-03-02T15:01:04;3.30;;;0.22;;
41556;SDS011;27720;51.992;5.890;2024-03-02T15:03:33;1.08;;;0.25;;
41556;SDS011;27720;51.992;5.890;2024-03-02T15:06:00;0.77;;;0.30;;
41556;SDS011;27720;51.992;5.890;2024-03-02T15:08:26;1.70;;;0.25;;
41556;SDS011;27720;51.992;5.890;2024-03-02T15:10:52;0.82;;;0.30;;